Terminal Aerodrome Forecast
Issued by NWS

Home | Current Version | Previous Version | Text Only | Print | Product List | Glossary On
Versions: 1 2 3 4 5 6 7 8 9 10 11 12 13 14 15 16 17 18
000
FTUS43 KILX 230500
TAFCMI
TAF
KCMI 230520Z 2306/2406 05010G18KT P6SM SKC
     FM230800 06009KT P6SM SCT250
     FM232000 10008KT P6SM SCT100
     FM240300 10010KT P6SM BKN060=

USA.gov is the U.S. government's official web portal to all federal, state and local government web resources and services.